createdAt,value
2023-02-19T00:02:09.362Z,5.77
2023-02-19T00:04:36.264Z,6.10
2023-02-19T00:07:03.235Z,5.90
2023-02-19T00:09:30.204Z,6.10
2023-02-19T00:11:57.067Z,6.90
2023-02-19T00:14:23.944Z,8.47
2023-02-19T00:16:50.926Z,6.00
2023-02-19T00:19:21.081Z,4.97
2023-02-19T00:21:52.373Z,5.87
2023-02-19T00:24:21.409Z,8.87
2023-02-19T00:26:49.036Z,5.50
2023-02-19T00:29:21.358Z,6.63
2023-02-19T00:31:48.486Z,5.63
2023-02-19T00:34:15.869Z,5.70
2023-02-19T00:36:43.418Z,6.00
2023-02-19T00:39:18.110Z,5.60
2023-02-19T00:41:46.212Z,5.83
2023-02-19T00:44:14.898Z,6.40
2023-02-19T00:46:47.431Z,6.20
2023-02-19T00:49:22.833Z,4.90
2023-02-19T00:51:52.813Z,4.70
2023-02-19T00:54:22.524Z,5.90
2023-02-19T00:56:50.335Z,6.07
2023-02-19T00:59:17.755Z,5.70
2023-02-19T01:01:45.446Z,4.93
2023-02-19T01:04:13.301Z,5.70
2023-02-19T01:06:41.129Z,4.93
2023-02-19T01:09:08.258Z,5.27
2023-02-19T01:11:35.808Z,5.10
2023-02-19T01:14:04.730Z,5.70
2023-02-19T01:16:32.247Z,4.60
2023-02-19T01:19:00.036Z,4.93
2023-02-19T01:21:29.839Z,4.70
2023-02-19T01:23:57.902Z,5.00
2023-02-19T01:26:30.610Z,4.50
2023-02-19T01:28:59.881Z,5.57
2023-02-19T01:31:28.343Z,5.70
2023-02-19T01:34:01.140Z,5.87
2023-02-19T01:36:32.077Z,5.67
2023-02-19T01:39:04.814Z,5.37
2023-02-19T01:41:36.879Z,5.03
2023-02-19T01:44:28.440Z,6.40
2023-02-19T01:46:57.575Z,5.57
2023-02-19T01:49:56.144Z,7.17
2023-02-19T01:52:36.574Z,5.27
2023-02-19T01:55:12.281Z,6.13
2023-02-19T01:57:50.068Z,5.73
2023-02-19T02:00:19.065Z,5.37
2023-02-19T02:02:52.553Z,5.80
2023-02-19T02:05:44.125Z,5.60
2023-02-19T02:08:33.639Z,4.70
2023-02-19T02:11:01.110Z,4.97
2023-02-19T02:13:28.905Z,3.70
2023-02-19T02:16:58.645Z,4.17
2023-02-19T02:19:54.591Z,3.83
2023-02-19T02:22:36.511Z,3.67
2023-02-19T02:25:45.745Z,3.60
2023-02-19T02:28:56.909Z,4.13
2023-02-19T02:31:44.806Z,2.97
2023-02-19T02:35:01.581Z,3.10
2023-02-19T02:37:36.897Z,2.77
2023-02-19T02:40:08.166Z,2.50
2023-02-19T02:42:39.760Z,2.63
2023-02-19T02:45:35.675Z,1.93
2023-02-19T02:48:30.503Z,2.50
2023-02-19T02:51:25.485Z,3.00
2023-02-19T02:54:52.152Z,2.57
2023-02-19T02:57:20.790Z,2.70
2023-02-19T02:59:49.102Z,3.13
2023-02-19T03:02:29.923Z,2.37
2023-02-19T03:05:38.996Z,2.20
2023-02-19T03:08:14.461Z,2.17
2023-02-19T03:11:39.024Z,3.30
2023-02-19T03:14:46.844Z,2.87
2023-02-19T03:17:45.048Z,2.50
2023-02-19T03:20:20.901Z,2.80
2023-02-19T03:22:52.696Z,2.80
2023-02-19T03:25:46.638Z,2.30
2023-02-19T03:28:18.001Z,2.50
2023-02-19T03:30:55.339Z,3.40
2023-02-19T03:33:29.682Z,2.80
2023-02-19T03:36:04.309Z,3.00
2023-02-19T03:38:47.866Z,2.40
2023-02-19T03:41:48.711Z,2.10
2023-02-19T03:45:05.214Z,1.90
2023-02-19T03:48:07.868Z,2.00
2023-02-19T03:51:05.130Z,1.53
2023-02-19T03:54:38.023Z,1.90
2023-02-19T03:57:44.941Z,3.67
2023-02-19T04:00:27.010Z,2.10
2023-02-19T04:03:15.827Z,2.00
2023-02-19T04:05:53.293Z,2.10
2023-02-19T04:08:25.452Z,2.23
2023-02-19T04:10:55.277Z,2.50
2023-02-19T04:13:47.374Z,1.87
2023-02-19T04:16:24.373Z,2.37
2023-02-19T04:18:59.736Z,2.77
2023-02-19T04:21:31.822Z,1.70
2023-02-19T04:24:11.834Z,11.00
2023-02-19T04:26:40.920Z,1.80
2023-02-19T04:29:07.857Z,2.00
2023-02-19T04:31:38.242Z,2.17
2023-02-19T04:34:05.492Z,2.83
2023-02-19T04:36:33.705Z,3.23
2023-02-19T04:39:00.680Z,2.60
2023-02-19T04:41:27.541Z,1.97
2023-02-19T04:43:54.506Z,2.07
2023-02-19T04:46:21.813Z,2.90
2023-02-19T04:48:48.831Z,3.30
2023-02-19T04:51:17.523Z,2.63
2023-02-19T04:53:44.409Z,2.70
2023-02-19T04:56:16.092Z,2.67
2023-02-19T04:58:45.328Z,3.60
2023-02-19T05:01:13.288Z,3.10
2023-02-19T05:03:40.819Z,3.27
2023-02-19T05:06:13.898Z,3.30
2023-02-19T05:08:41.830Z,3.00
2023-02-19T05:11:12.360Z,3.60
2023-02-19T05:13:40.259Z,3.27
2023-02-19T05:16:18.760Z,3.27
2023-02-19T05:18:47.319Z,2.80
2023-02-19T05:21:16.009Z,4.07
2023-02-19T05:23:44.183Z,3.77
2023-02-19T05:26:23.217Z,3.80
2023-02-19T05:28:53.499Z,3.77
2023-02-19T05:31:22.290Z,4.83
2023-02-19T05:33:51.261Z,5.40
2023-02-19T05:36:21.522Z,3.97
2023-02-19T05:38:54.092Z,2.90
2023-02-19T05:41:28.413Z,4.53
2023-02-19T05:43:57.083Z,4.70
2023-02-19T05:46:30.027Z,4.67
2023-02-19T05:48:58.299Z,5.30
2023-02-19T05:51:27.192Z,4.23
2023-02-19T05:53:55.896Z,4.83
2023-02-19T05:56:38.106Z,4.90
2023-02-19T05:59:21.355Z,4.17
2023-02-19T06:01:54.291Z,4.27
2023-02-19T06:04:21.751Z,5.00
2023-02-19T06:06:49.815Z,4.25
2023-02-19T06:09:17.392Z,4.37
2023-02-19T06:11:44.816Z,4.87
2023-02-19T06:14:14.218Z,4.30
2023-02-19T06:16:41.674Z,4.30
2023-02-19T06:19:09.311Z,3.80
2023-02-19T06:21:36.307Z,4.90
2023-02-19T06:24:10.056Z,4.83
2023-02-19T06:26:37.929Z,4.20
2023-02-19T06:29:04.908Z,4.80
2023-02-19T06:31:32.088Z,4.43
2023-02-19T06:33:59.060Z,5.03
2023-02-19T06:36:26.008Z,4.23
2023-02-19T06:38:52.986Z,4.70
2023-02-19T06:41:19.992Z,4.40
2023-02-19T06:43:47.083Z,6.43
2023-02-19T06:46:14.527Z,6.50
2023-02-19T06:48:44.213Z,4.43
2023-02-19T06:51:19.369Z,4.77
2023-02-19T06:53:46.734Z,6.10
2023-02-19T06:56:31.200Z,3.70
2023-02-19T06:59:03.010Z,4.20
2023-02-19T07:01:33.493Z,4.10
2023-02-19T07:04:02.529Z,4.67
2023-02-19T07:06:30.833Z,4.73
2023-02-19T07:09:00.012Z,4.40
2023-02-19T07:11:32.688Z,3.80
2023-02-19T07:14:04.891Z,4.47
2023-02-19T07:16:31.974Z,4.50
2023-02-19T07:19:00.940Z,4.57
2023-02-19T07:21:29.508Z,3.87
2023-02-19T07:23:57.265Z,4.20
2023-02-19T07:26:24.958Z,4.40
2023-02-19T07:28:52.362Z,3.53
2023-02-19T07:31:23.612Z,4.63
2023-02-19T07:33:51.281Z,4.27
2023-02-19T07:36:22.203Z,4.73
2023-02-19T07:38:58.968Z,5.33
2023-02-19T07:41:27.314Z,3.90
2023-02-19T07:43:54.766Z,3.27
2023-02-19T07:46:23.055Z,4.10
2023-02-19T07:48:49.995Z,4.67
2023-02-19T07:51:20.713Z,3.10
2023-02-19T07:53:51.566Z,2.60
2023-02-19T07:56:19.984Z,2.70
2023-02-19T07:58:47.156Z,2.30
2023-02-19T08:01:39.767Z,2.90
2023-02-19T08:04:07.282Z,2.43
2023-02-19T08:06:34.173Z,2.60
2023-02-19T08:09:01.046Z,3.60
2023-02-19T08:11:46.721Z,2.40
2023-02-19T08:14:13.581Z,2.57
2023-02-19T08:16:43.295Z,2.60
2023-02-19T08:19:10.404Z,2.43
2023-02-19T08:21:37.284Z,2.60
2023-02-19T08:24:04.757Z,1.90
2023-02-19T08:26:34.236Z,3.30
2023-02-19T08:29:05.167Z,2.70
2023-02-19T08:31:33.515Z,3.13
2023-02-19T08:34:00.558Z,2.37
2023-02-19T08:36:27.756Z,2.60
2023-02-19T08:38:54.603Z,3.00
2023-02-19T08:41:21.821Z,2.47
2023-02-19T08:43:49.038Z,3.60
2023-02-19T08:46:16.311Z,2.20
2023-02-19T08:48:43.234Z,1.97
2023-02-19T08:51:12.657Z,4.40
2023-02-19T08:53:41.549Z,2.63
2023-02-19T08:56:13.307Z,2.37
2023-02-19T08:58:40.804Z,3.57
2023-02-19T09:03:50.694Z,3.80
2023-02-19T09:06:22.313Z,2.50
2023-02-19T09:08:49.196Z,4.27
2023-02-19T09:11:16.248Z,2.67
2023-02-19T09:13:44.533Z,2.13
2023-02-19T09:16:12.534Z,2.37
2023-02-19T09:18:39.892Z,2.10
2023-02-19T09:21:07.212Z,4.50
2023-02-19T09:23:36.431Z,3.83
2023-02-19T09:26:11.249Z,2.40
2023-02-19T09:28:41.393Z,1.53
2023-02-19T09:31:16.271Z,2.37
2023-02-19T09:33:48.437Z,1.57
2023-02-19T09:36:18.659Z,1.73
2023-02-19T09:38:46.066Z,1.43
2023-02-19T09:41:31.721Z,2.17
2023-02-19T09:44:09.030Z,2.30
2023-02-19T09:46:51.233Z,1.90
2023-02-19T09:49:37.349Z,1.90
2023-02-19T09:52:27.893Z,2.00
2023-02-19T09:55:01.224Z,2.70
2023-02-19T09:57:35.213Z,1.90
2023-02-19T10:00:24.522Z,3.17
2023-02-19T10:03:06.076Z,2.40
2023-02-19T10:05:35.190Z,2.37
2023-02-19T10:08:12.913Z,1.97
2023-02-19T10:10:41.370Z,3.17
2023-02-19T10:13:35.948Z,3.30
2023-02-19T10:16:09.771Z,2.80
2023-02-19T10:18:43.119Z,2.97
2023-02-19T10:21:24.932Z,5.40
2023-02-19T10:24:01.102Z,3.50
2023-02-19T10:26:28.307Z,2.70
2023-02-19T10:28:55.536Z,3.00
2023-02-19T10:31:25.800Z,2.20
2023-02-19T10:34:00.991Z,4.30
2023-02-19T10:36:34.627Z,11.00
2023-02-19T10:39:43.819Z,8.00
2023-02-19T10:42:23.249Z,20.60
2023-02-19T10:45:01.851Z,4.63
2023-02-19T10:47:32.914Z,2.40
2023-02-19T10:50:03.423Z,2.63
2023-02-19T10:52:36.520Z,2.33
2023-02-19T10:55:28.336Z,3.10
2023-02-19T10:57:57.581Z,5.13
2023-02-19T11:00:30.450Z,2.60
2023-02-19T11:03:23.802Z,2.90
2023-02-19T11:06:03.387Z,4.40
2023-02-19T11:08:51.436Z,4.30
2023-02-19T11:11:40.626Z,4.57
2023-02-19T11:14:34.902Z,4.90
2023-02-19T11:17:05.534Z,3.10
2023-02-19T11:19:44.160Z,3.93
2023-02-19T11:22:41.739Z,2.53
2023-02-19T11:25:25.546Z,3.37
2023-02-19T11:28:09.323Z,3.00
2023-02-19T11:30:43.422Z,6.57
2023-02-19T11:33:16.349Z,3.73
2023-02-19T11:35:45.375Z,2.97
2023-02-19T11:38:17.551Z,2.43
2023-02-19T11:41:41.476Z,3.43
2023-02-19T11:44:46.115Z,2.97
2023-02-19T11:48:22.759Z,2.97
2023-02-19T11:51:31.278Z,3.80
2023-02-19T11:54:37.675Z,3.63
2023-02-19T11:57:32.324Z,3.50
2023-02-19T12:00:27.213Z,6.63
2023-02-19T12:03:56.568Z,4.03
2023-02-19T12:07:16.855Z,3.47
2023-02-19T12:10:07.919Z,3.93
2023-02-19T12:12:57.838Z,4.40
2023-02-19T12:15:45.833Z,6.03
2023-02-19T12:18:37.633Z,5.40
2023-02-19T12:22:08.211Z,5.30
2023-02-19T12:25:23.698Z,6.17
2023-02-19T12:28:27.381Z,4.10
2023-02-19T12:31:34.961Z,4.53
2023-02-19T12:34:44.343Z,8.30
2023-02-19T12:37:49.802Z,4.27
2023-02-19T12:40:56.645Z,4.70
2023-02-19T12:43:24.852Z,7.30
2023-02-19T12:46:02.813Z,15.07
2023-02-19T12:48:39.073Z,3.50
2023-02-19T12:51:20.726Z,4.10
2023-02-19T12:54:20.072Z,4.27
2023-02-19T12:57:32.577Z,3.93
2023-02-19T13:00:25.522Z,3.87
2023-02-19T13:03:13.197Z,8.87
2023-02-19T13:06:12.006Z,6.43
2023-02-19T13:09:14.968Z,5.70
2023-02-19T13:12:02.122Z,4.60
2023-02-19T13:14:46.874Z,3.53
2023-02-19T13:17:44.321Z,4.13
2023-02-19T13:20:37.476Z,3.40
2023-02-19T13:23:46.583Z,5.00
2023-02-19T13:26:50.712Z,4.00
2023-02-19T13:29:20.344Z,5.17
2023-02-19T13:32:24.054Z,9.00
2023-02-19T13:35:20.845Z,3.57
2023-02-19T13:37:50.182Z,3.13
2023-02-19T13:40:34.848Z,4.03
2023-02-19T13:43:08.499Z,4.93
2023-02-19T13:45:46.121Z,5.30
2023-02-19T13:48:24.252Z,3.87
2023-02-19T13:51:34.146Z,6.63
2023-02-19T13:54:13.935Z,4.90
2023-02-19T13:56:41.642Z,5.23
2023-02-19T13:59:38.598Z,4.87
2023-02-19T14:02:27.894Z,4.17
2023-02-19T14:05:03.631Z,3.10
2023-02-19T14:07:55.365Z,3.50
2023-02-19T14:10:57.747Z,4.90
2023-02-19T14:13:49.763Z,7.10
2023-02-19T14:16:37.589Z,6.50
2023-02-19T14:19:33.535Z,3.73
2023-02-19T14:22:00.471Z,2.80
2023-02-19T14:24:28.378Z,5.13
2023-02-19T14:26:57.593Z,4.50
2023-02-19T14:29:24.734Z,3.27
2023-02-19T14:31:52.203Z,5.23
2023-02-19T14:34:26.838Z,4.60
2023-02-19T14:37:01.285Z,2.73
2023-02-19T14:39:37.622Z,7.43
2023-02-19T14:42:32.329Z,3.57
2023-02-19T14:45:07.177Z,4.17
2023-02-19T14:47:37.289Z,3.33
2023-02-19T14:50:27.844Z,3.47
2023-02-19T14:53:03.008Z,6.77
2023-02-19T14:55:36.567Z,3.47
2023-02-19T14:58:15.559Z,4.60
2023-02-19T15:00:43.759Z,16.33
2023-02-19T15:03:35.720Z,3.20
2023-02-19T15:06:17.403Z,5.57
2023-02-19T15:08:52.583Z,6.53
2023-02-19T15:11:26.002Z,6.43
2023-02-19T15:14:03.612Z,5.83
2023-02-19T15:16:36.132Z,3.40
2023-02-19T15:19:09.970Z,3.40
2023-02-19T15:21:47.841Z,6.33
2023-02-19T15:24:18.811Z,9.20
2023-02-19T15:26:54.005Z,8.33
2023-02-19T15:29:26.449Z,7.23
2023-02-19T15:32:02.256Z,6.40
2023-02-19T15:34:32.826Z,4.73
2023-02-19T15:37:09.482Z,9.30
2023-02-19T15:39:44.775Z,6.70
2023-02-19T15:42:26.485Z,7.80
2023-02-19T15:45:31.412Z,3.90
2023-02-19T15:48:15.918Z,4.67
2023-02-19T15:50:52.156Z,4.03
2023-02-19T15:53:33.990Z,4.30
2023-02-19T15:56:30.365Z,3.30
2023-02-19T15:59:33.884Z,2.50
2023-02-19T16:02:01.780Z,6.60
2023-02-19T16:04:29.016Z,4.40
2023-02-19T16:07:02.098Z,4.17
2023-02-19T16:09:38.554Z,5.30
2023-02-19T16:12:24.673Z,3.60
2023-02-19T16:14:51.674Z,6.30
2023-02-19T16:17:23.127Z,3.73
2023-02-19T16:20:03.061Z,5.83
2023-02-19T16:22:41.380Z,6.63
2023-02-19T16:25:37.727Z,10.40
2023-02-19T16:28:23.914Z,3.87
2023-02-19T16:31:03.134Z,4.40
2023-02-19T16:33:49.212Z,15.20
2023-02-19T16:36:41.496Z,5.27
2023-02-19T16:39:08.299Z,7.30
2023-02-19T16:41:49.345Z,9.17
2023-02-19T16:44:35.525Z,5.83
2023-02-19T16:47:17.193Z,8.03
2023-02-19T16:49:44.270Z,7.33
2023-02-19T16:52:16.843Z,7.37
2023-02-19T16:54:43.896Z,7.10
2023-02-19T16:57:10.811Z,5.50
2023-02-19T16:59:37.726Z,4.00
2023-02-19T17:02:10.046Z,8.00
2023-02-19T17:04:37.010Z,5.60
2023-02-19T17:07:03.924Z,7.77
2023-02-19T17:09:30.862Z,5.40
2023-02-19T17:11:57.725Z,5.30
2023-02-19T17:14:24.565Z,7.27
2023-02-19T17:16:51.472Z,7.57
2023-02-19T17:19:20.134Z,6.83
2023-02-19T17:21:47.551Z,6.77
2023-02-19T17:24:15.002Z,5.53
2023-02-19T17:26:42.080Z,5.60
2023-02-19T17:29:17.908Z,4.40
2023-02-19T17:31:45.201Z,4.83
2023-02-19T17:34:12.250Z,5.30
2023-02-19T17:36:40.396Z,8.60
2023-02-19T17:39:08.117Z,6.57
2023-02-19T17:41:35.048Z,6.00
2023-02-19T17:44:01.912Z,9.83
2023-02-19T17:46:28.786Z,5.97
2023-02-19T17:48:55.932Z,6.60
2023-02-19T17:51:23.337Z,5.40
2023-02-19T17:53:50.336Z,7.07
2023-02-19T17:56:22.116Z,6.33
2023-02-19T17:58:49.222Z,12.93
2023-02-19T18:01:16.531Z,17.50
2023-02-19T18:03:44.165Z,7.03
2023-02-19T18:06:11.374Z,12.93
2023-02-19T18:08:38.604Z,10.57
2023-02-19T18:11:07.582Z,12.20
2023-02-19T18:13:34.495Z,7.90
2023-02-19T18:16:01.586Z,7.00
2023-02-19T18:18:28.622Z,6.23
2023-02-19T18:20:55.565Z,7.20
2023-02-19T18:23:22.487Z,12.57
2023-02-19T18:25:49.366Z,10.97
2023-02-19T18:28:17.039Z,5.90
2023-02-19T18:30:44.051Z,7.03
2023-02-19T18:33:13.295Z,8.50
2023-02-19T18:35:40.499Z,10.17
2023-02-19T18:38:07.617Z,6.70
2023-02-19T18:40:34.742Z,6.20
2023-02-19T18:43:01.680Z,11.47
2023-02-19T18:45:29.543Z,6.40
2023-02-19T18:47:56.679Z,5.50
2023-02-19T18:50:23.636Z,7.47
2023-02-19T18:52:51.384Z,11.07
2023-02-19T18:55:19.257Z,10.43
2023-02-19T18:57:48.772Z,12.80
2023-02-19T19:00:26.334Z,11.03
2023-02-19T19:02:59.319Z,8.73
2023-02-19T19:05:27.385Z,6.80
2023-02-19T19:07:59.030Z,9.77
2023-02-19T19:10:26.652Z,11.00
2023-02-19T19:12:54.364Z,7.67
2023-02-19T19:15:22.594Z,9.90
2023-02-19T19:17:50.494Z,6.77
2023-02-19T19:20:23.585Z,8.93
2023-02-19T19:22:52.919Z,8.07
2023-02-19T19:25:22.884Z,14.97
2023-02-19T19:27:54.951Z,9.90
2023-02-19T19:30:22.204Z,11.83
2023-02-19T19:32:52.412Z,10.90
2023-02-19T19:35:21.721Z,12.63
2023-02-19T19:37:49.548Z,8.03
2023-02-19T19:40:18.817Z,9.13
2023-02-19T19:42:46.264Z,10.83
2023-02-19T19:45:14.829Z,9.07
2023-02-19T19:47:41.929Z,14.00
2023-02-19T19:50:10.003Z,15.70
2023-02-19T19:52:36.878Z,8.60
2023-02-19T19:55:04.017Z,25.17
2023-02-19T19:57:30.872Z,11.33
2023-02-19T19:59:57.815Z,8.77
2023-02-19T20:02:24.878Z,9.37
2023-02-19T20:04:51.791Z,7.10
2023-02-19T20:07:18.719Z,8.57
2023-02-19T20:09:50.052Z,6.23
2023-02-19T20:12:17.847Z,8.90
2023-02-19T20:14:46.765Z,11.77
2023-02-19T20:17:15.082Z,8.83
2023-02-19T20:19:42.394Z,8.87
2023-02-19T20:22:09.462Z,8.37
2023-02-19T20:24:36.366Z,6.83
2023-02-19T20:27:04.425Z,6.90
2023-02-19T20:29:34.797Z,8.90
2023-02-19T20:32:03.490Z,10.33
2023-02-19T20:34:36.067Z,4.93
2023-02-19T20:37:03.826Z,5.80
2023-02-19T20:39:31.775Z,5.00
2023-02-19T20:42:01.513Z,3.73
2023-02-19T20:44:29.765Z,4.20
2023-02-19T20:46:59.797Z,3.97
2023-02-19T20:49:31.079Z,4.30
2023-02-19T20:52:02.498Z,3.57
2023-02-19T20:54:33.764Z,3.80
2023-02-19T20:57:05.717Z,8.07
2023-02-19T20:59:35.367Z,2.60
2023-02-19T21:02:13.785Z,3.87
2023-02-19T21:04:40.704Z,4.03
2023-02-19T21:07:07.557Z,3.83
2023-02-19T21:09:34.433Z,4.47
2023-02-19T21:12:01.334Z,3.60
2023-02-19T21:14:28.219Z,6.13
2023-02-19T21:16:55.113Z,5.40
2023-02-19T21:19:22.695Z,4.37
2023-02-19T21:21:49.671Z,6.63
2023-02-19T21:24:17.117Z,2.90
2023-02-19T21:26:44.944Z,3.53
2023-02-19T21:29:21.969Z,5.03
2023-02-19T21:31:54.668Z,3.30
2023-02-19T21:34:28.814Z,2.10
2023-02-19T21:36:56.919Z,2.57
2023-02-19T21:39:27.278Z,2.60
2023-02-19T21:41:54.555Z,2.93
2023-02-19T21:44:21.790Z,4.10
2023-02-19T21:46:48.970Z,3.60
2023-02-19T21:49:17.733Z,3.43
2023-02-19T21:51:47.796Z,2.33
2023-02-19T21:54:24.448Z,2.10
2023-02-19T21:56:53.471Z,2.03
2023-02-19T21:59:22.473Z,2.50
2023-02-19T22:01:50.456Z,2.70
2023-02-19T22:04:21.642Z,1.97
2023-02-19T22:06:48.628Z,2.20
2023-02-19T22:09:16.443Z,2.87
2023-02-19T22:11:45.581Z,4.10
2023-02-19T22:14:12.440Z,3.30
2023-02-19T22:16:39.395Z,3.00
2023-02-19T22:19:06.293Z,4.30
2023-02-19T22:21:33.472Z,6.13
2023-02-19T22:24:03.260Z,4.30
2023-02-19T22:26:36.186Z,5.03
2023-02-19T22:29:06.926Z,4.03
2023-02-19T22:31:35.350Z,4.57
2023-02-19T22:34:03.475Z,6.07
2023-02-19T22:36:34.129Z,3.87
2023-02-19T22:39:01.895Z,4.60
2023-02-19T22:41:29.747Z,4.13
2023-02-19T22:43:59.431Z,6.17
2023-02-19T22:46:30.934Z,6.47
2023-02-19T22:49:04.708Z,4.57
2023-02-19T22:51:35.350Z,4.80
2023-02-19T22:54:02.306Z,8.63
2023-02-19T22:56:29.287Z,4.77
2023-02-19T22:58:58.676Z,7.20
2023-02-19T23:01:25.903Z,8.17
2023-02-19T23:03:57.860Z,7.03
2023-02-19T23:06:32.888Z,12.17
2023-02-19T23:09:11.115Z,6.83
2023-02-19T23:11:39.443Z,9.13
2023-02-19T23:14:07.203Z,6.33
2023-02-19T23:16:37.877Z,10.30
2023-02-19T23:19:11.187Z,6.83
2023-02-19T23:21:40.584Z,9.17
2023-02-19T23:24:08.391Z,6.37
2023-02-19T23:26:35.801Z,8.33
2023-02-19T23:29:03.121Z,6.27
2023-02-19T23:31:30.088Z,7.27
2023-02-19T23:33:56.987Z,8.00
2023-02-19T23:36:23.925Z,8.53
2023-02-19T23:38:50.952Z,7.23
2023-02-19T23:41:19.256Z,11.00
2023-02-19T23:43:46.464Z,9.60
2023-02-19T23:46:18.517Z,9.07
2023-02-19T23:48:46.255Z,7.20
2023-02-19T23:51:19.021Z,8.70
2023-02-19T23:53:45.904Z,11.23
2023-02-19T23:56:13.170Z,9.87
2023-02-19T23:58:40.189Z,8.30
